עמוד ראשי
METAR-TAF:

METAR-TAF

שדות תעופה :

Kiana, אלסקה, ארצות הברית

קו רוחב: 66-59N, קו אורך: 160-26W, גובה: 46מטר

תצפית מזג אוויר נוכחית

הדו"ח נערך לפני 1 שעות ו 16דקות, בשעה 10:56 UTC
רוח 5קשר מכיוון צפון
טמפרטורת 6 צלסיוס
לחות 75%
לחץ 1026 hPa
ראות: 16.1קילומטר
שמיים נקיים

METAR: PAIK 151056Z AUTO 35005KT 10SM CLR 06/02 A3029 RMK AO2 SLP259 T00610017

זמן: 04:12 (12:12 UTC)


TAF: חסר

תצפיות ותחזיות מזג אוויר לגבי יותר מ- 4,000 שדות תעופה ברחבי העולם. דוחות METAR ו- TAF.

התחנות הזמינות מסומנות בנקודות צהובות ואדומות על גבי המפה.

העבר את העכבר לנקודה הצבעונית על מנת לראות את שם התחנה.

לאחר מכן, לחץ כדי לראות את תוכן ואת תחזיות מזג האוויר.

כדי לשנות את המפה: לחץ על הכפתורים הירוקים עם הפלוס השחור כדי להתקרב; על הכפתור הירוק עם המקף כדי להתרחק; או בחיצים הירוקים למפות סמוכות.


METAR-TAF: